Time;durP1;ratioP1;P1;durP2;ratioP2;P2;SDS_P1;SDS_P2;PMS_P1;PMS_P2;Temp;Humidity;BMP_temperature;BMP_pressure;BME280_temperature;BME280_humidity;BME280_pressure;Samples;Min_cycle;Max_cycle;Signal;HPM_P1;HPM_P2
2024/02/26 00:00:29;;;;;;;36.80;22.20;;;;;;;6.42;97.77;99783.01;106063;1259;100424;-78
2024/02/26 00:03:35;;;;;;;37.10;21.70;;;;;;;6.39;98.03;99781.98;106135;1253;102005;-77
2024/02/26 00:06:21;;;;;;;36.80;22.30;;;;;;;6.37;98.29;99780.60;106050;1257;98779;-78
2024/02/26 00:09:07;;;;;;;36.20;22.10;;;;;;;6.37;98.36;99784.55;105959;1254;96612;-78
2024/02/26 00:11:52;;;;;;;38.50;22.70;;;;;;;6.37;98.67;99783.64;105930;1259;96700;-78
2024/02/26 00:14:38;;;;;;;42.20;22.50;;;;;;;6.38;99.10;99779.63;105929;1253;100043;-79
2024/02/26 00:17:24;;;;;;;34.80;21.00;;;;;;;6.38;99.08;99774.15;106029;1253;100394;-78
2024/02/26 00:20:10;;;;;;;39.40;23.20;;;;;;;6.38;99.10;99773.98;105927;1253;98802;-78
2024/02/26 00:22:56;;;;;;;38.50;23.00;;;;;;;6.37;99.31;99777.27;106070;1254;96695;-78
2024/02/26 00:25:43;;;;;;;40.70;23.30;;;;;;;6.34;99.06;99775.07;106109;1254;97195;-79
2024/02/26 00:28:29;;;;;;;37.30;22.90;;;;;;;6.31;98.95;99773.38;106611;1256;99964;-78
2024/02/26 00:31:15;;;;;;;39.80;22.90;;;;;;;6.28;98.90;99772.84;105873;1257;99121;-79
2024/02/26 00:34:01;;;;;;;39.50;22.40;;;;;;;6.23;98.57;99764.41;106084;1254;98529;-78
2024/02/26 00:36:48;;;;;;;38.10;22.60;;;;;;;6.17;98.26;99761.16;106201;1259;96700;-78
2024/02/26 00:39:34;;;;;;;39.50;22.90;;;;;;;6.10;98.10;99762.52;106101;1256;97028;-78
2024/02/26 00:42:19;;;;;;;39.50;21.80;;;;;;;6.05;98.01;99758.30;105942;1256;99989;-78
2024/02/26 00:45:06;;;;;;;35.30;21.90;;;;;;;6.03;98.18;99755.03;106250;1256;99911;-79
2024/02/26 00:47:52;;;;;;;38.70;22.90;;;;;;;5.99;98.12;99754.05;105927;1256;97784;-77
2024/02/26 00:50:37;;;;;;;42.20;24.10;;;;;;;5.94;98.68;99752.30;105864;1253;96603;-78
2024/02/26 00:53:24;;;;;;;40.90;24.60;;;;;;;5.92;98.80;99748.89;106043;1256;96543;-79
2024/02/26 00:56:10;;;;;;;40.00;24.30;;;;;;;5.88;98.80;99748.95;105992;1254;100030;-78
2024/02/26 00:58:55;;;;;;;46.00;26.70;;;;;;;5.83;98.73;99745.13;106008;1254;100072;-77
2024/02/26 01:01:41;;;;;;;47.60;28.20;;;;;;;5.79;98.85;99746.80;105941;1269;99020;-77
2024/02/26 01:04:27;;;;;;;50.10;29.40;;;;;;;5.75;98.67;99746.77;105610;1259;96602;-77
2024/02/26 01:07:13;;;;;;;47.20;29.30;;;;;;;5.70;98.62;99749.09;105790;1253;96610;-78
2024/02/26 01:09:58;;;;;;;47.10;26.80;;;;;;;5.68;98.56;99753.46;105941;1259;100042;-78
2024/02/26 01:12:44;;;;;;;52.50;27.80;;;;;;;5.65;98.80;99753.61;106066;1254;99234;-78
2024/02/26 01:15:29;;;;;;;56.60;29.70;;;;;;;5.63;98.77;99750.43;106027;1256;99013;-78
2024/02/26 01:18:15;;;;;;;50.90;28.50;;;;;;;5.63;99.41;99749.98;106603;1256;96597;-80
2024/02/26 01:21:00;;;;;;;46.10;25.40;;;;;;;5.62;99.68;99749.51;106824;1256;97128;-79
2024/02/26 01:23:46;;;;;;;41.60;23.70;;;;;;;5.61;99.72;99752.27;106751;1253;100442;-79
2024/02/26 01:26:31;;;;;;;39.20;24.20;;;;;;;5.60;99.92;99753.10;106719;1256;99153;-79
2024/02/26 01:29:17;;;;;;;42.20;23.00;;;;;;;5.57;99.62;99757.20;106792;1253;99059;-79
2024/02/26 01:32:04;;;;;;;40.90;24.90;;;;;;;5.54;99.45;99756.00;106709;1253;96526;-80
2024/02/26 01:34:50;;;;;;;37.80;24.10;;;;;;;5.50;99.37;99755.13;106667;1253;97401;-79
2024/02/26 01:37:36;;;;;;;40.90;23.70;;;;;;;5.46;99.22;99755.05;106863;1254;100026;-80
2024/02/26 01:40:22;;;;;;;36.60;22.50;;;;;;;5.40;98.99;99755.90;106703;1259;99158;-79
2024/02/26 01:43:07;;;;;;;37.60;23.80;;;;;;;5.35;99.10;99756.27;106924;1254;98956;-79
2024/02/26 01:45:53;;;;;;;39.80;25.00;;;;;;;5.33;99.24;99758.50;106804;1253;96722;-79
2024/02/26 01:48:41;;;;;;;39.00;24.20;;;;;;;5.30;99.22;99760.60;106876;1258;97008;-80
2024/02/26 01:51:27;;;;;;;43.10;23.90;;;;;;;5.27;99.14;99761.55;107168;1258;149599;-80
2024/02/26 01:54:13;;;;;;;40.90;25.30;;;;;;;5.24;99.21;99765.54;106948;1253;99150;-79
2024/02/26 01:56:59;;;;;;;38.10;22.80;;;;;;;5.23;99.19;99764.12;107294;1254;97743;-80
2024/02/26 01:59:44;;;;;;;42.90;24.90;;;;;;;5.20;99.24;99764.23;106861;1253;97862;-80
2024/02/26 02:02:30;;;;;;;40.30;24.50;;;;;;;5.18;99.32;99767.13;106734;1254;96689;-79
2024/02/26 02:05:19;;;;;;;35.30;24.30;;;;;;;5.17;99.53;99767.27;106704;1253;99995;-80
2024/02/26 02:08:05;;;;;;;41.50;23.50;;;;;;;5.16;99.44;99764.35;106349;1257;99053;-79
2024/02/26 02:10:51;;;;;;;40.60;23.90;;;;;;;5.15;99.69;99761.68;106212;1253;98480;-79
2024/02/26 02:13:37;;;;;;;38.20;24.20;;;;;;;5.14;99.88;99758.71;105924;1254;96671;-79
2024/02/26 02:16:23;;;;;;;40.10;23.40;;;;;;;5.13;99.85;99763.23;105912;1254;96641;-80
2024/02/26 02:19:08;;;;;;;42.10;22.80;;;;;;;5.13;100.00;99764.33;106519;1259;100729;-79
2024/02/26 02:21:54;;;;;;;41.50;23.80;;;;;;;5.11;100.00;99767.27;106193;1259;99138;-78
2024/02/26 02:24:40;;;;;;;37.90;22.60;;;;;;;5.08;100.00;99766.15;105988;1259;98531;-77
2024/02/26 02:27:27;;;;;;;43.20;22.90;;;;;;;5.05;100.00;99767.35;105931;1259;96919;-78
2024/02/26 02:30:13;;;;;;;38.30;24.20;;;;;;;5.03;100.00;99768.68;107849;1253;95832;-79
2024/02/26 02:32:59;;;;;;;45.60;24.50;;;;;;;5.02;100.00;99769.98;106186;1256;99973;-77
2024/02/26 02:35:45;;;;;;;53.20;26.30;;;;;;;5.02;100.00;99772.02;106670;1253;100623;-79
2024/02/26 02:38:31;;;;;;;47.10;27.30;;;;;;;5.00;100.00;99774.13;106169;1257;97725;-78
2024/02/26 02:41:18;;;;;;;49.80;25.00;;;;;;;4.96;100.00;99775.67;106252;1256;97925;-78
2024/02/26 02:44:03;;;;;;;46.10;26.20;;;;;;;4.91;100.00;99776.71;106115;1254;97275;-78
2024/02/26 02:46:50;;;;;;;52.10;28.00;;;;;;;4.88;100.00;99781.17;106838;1256;101322;-80
2024/02/26 02:49:36;;;;;;;48.60;26.50;;;;;;;4.84;99.94;99787.29;106926;1254;99168;-80
2024/02/26 02:52:23;;;;;;;46.70;27.00;;;;;;;4.81;99.97;99791.90;106918;1254;97783;-79
2024/02/26 02:55:09;;;;;;;46.70;25.40;;;;;;;4.80;100.00;99789.55;106838;1260;96797;-79
2024/02/26 02:57:55;;;;;;;45.20;25.60;;;;;;;4.77;99.85;99791.42;106861;1254;96484;-79
2024/02/26 03:00:40;;;;;;;53.00;27.70;;;;;;;4.74;99.77;99791.66;106824;1256;100050;-79
2024/02/26 03:03:28;;;;;;;57.00;26.90;;;;;;;4.72;99.94;99793.61;106980;1253;99088;-80
2024/02/26 03:06:14;;;;;;;44.20;26.10;;;;;;;4.69;100.00;99790.50;106917;1256;98954;-80
2024/02/26 03:09:00;;;;;;;43.20;25.10;;;;;;;4.66;99.99;99793.86;106992;1254;96492;-80
2024/02/26 03:11:46;;;;;;;43.00;25.20;;;;;;;4.63;100.00;99793.67;107437;1254;95858;-80
2024/02/26 03:14:31;;;;;;;43.40;25.90;;;;;;;4.62;100.00;99792.89;107321;1254;101065;-80
2024/02/26 03:17:17;;;;;;;40.20;25.80;;;;;;;4.59;100.00;99792.67;107157;1254;99339;-80
2024/02/26 03:20:05;;;;;;;41.40;25.10;;;;;;;4.55;99.91;99792.84;107282;1254;97734;-81
2024/02/26 03:22:50;;;;;;;38.80;24.60;;;;;;;4.50;99.89;99787.88;107276;1253;96601;-80
2024/02/26 03:25:36;;;;;;;37.90;24.10;;;;;;;4.46;99.98;99784.45;107222;1259;96703;-80
2024/02/26 03:28:22;;;;;;;42.90;25.80;;;;;;;4.42;99.85;99786.07;107503;1256;100798;-80
2024/02/26 03:31:07;;;;;;;44.70;28.00;;;;;;;4.39;99.72;99786.27;107372;1253;100446;-80
2024/02/26 03:33:53;;;;;;;43.20;27.20;;;;;;;4.36;99.53;99784.48;107440;1254;97729;-80
2024/02/26 03:36:38;;;;;;;35.50;23.90;;;;;;;4.32;99.69;99786.14;107140;1256;96514;-80
2024/02/26 03:39:24;;;;;;;38.60;23.90;;;;;;;4.30;99.98;99786.54;106725;1254;97774;-79
2024/02/26 03:42:09;;;;;;;35.00;21.70;;;;;;;4.29;100.00;99782.45;106245;1259;100133;-79
2024/02/26 03:44:55;;;;;;;36.10;22.90;;;;;;;4.26;100.00;99781.49;106320;1258;99096;-78
2024/02/26 03:47:41;;;;;;;37.10;23.30;;;;;;;4.23;100.00;99782.42;106410;1254;97760;-79
2024/02/26 03:50:26;;;;;;;34.10;22.20;;;;;;;4.20;100.00;99785.45;107268;1253;96522;-79
2024/02/26 03:53:12;;;;;;;33.40;21.60;;;;;;;4.14;100.00;99790.65;106481;1258;96600;-78
2024/02/26 03:55:58;;;;;;;35.00;22.20;;;;;;;4.10;99.97;99792.63;106151;1254;100805;-78
2024/02/26 03:58:43;;;;;;;34.10;20.70;;;;;;;4.09;100.00;99793.31;106137;1254;99842;-78
2024/02/26 04:01:29;;;;;;;37.40;22.50;;;;;;;4.06;100.00;99794.31;106258;1256;98343;-79
2024/02/26 04:04:14;;;;;;;35.00;21.50;;;;;;;4.05;100.00;99796.43;106179;1258;96516;-78
2024/02/26 04:07:00;;;;;;;33.30;22.00;;;;;;;4.02;99.97;99803.59;106320;1253;97497;-78
2024/02/26 04:09:45;;;;;;;39.60;23.80;;;;;;;3.99;99.95;99804.29;106427;1254;100161;-79
2024/02/26 04:12:31;;;;;;;38.00;23.90;;;;;;;3.97;99.97;99802.96;106306;1253;100378;-79
2024/02/26 04:15:16;;;;;;;40.20;24.00;;;;;;;3.95;100.00;99805.41;106197;1259;97815;-78
2024/02/26 04:18:02;;;;;;;37.60;23.70;;;;;;;3.94;99.99;99802.55;106299;1257;96632;-79
2024/02/26 04:20:48;;;;;;;38.40;23.90;;;;;;;3.91;99.87;99800.73;106372;1257;96991;-79
2024/02/26 04:23:33;;;;;;;41.40;25.80;;;;;;;3.88;99.92;99806.11;106236;1257;99979;-77
2024/02/26 04:26:20;;;;;;;41.00;25.30;;;;;;;3.86;99.90;99802.84;106113;1254;99133;-79
2024/02/26 04:29:05;;;;;;;37.60;23.20;;;;;;;3.81;99.49;99803.69;106240;1253;97757;-79
2024/02/26 04:31:51;;;;;;;36.90;22.90;;;;;;;3.77;99.54;99806.99;106182;1259;97852;-78
2024/02/26 04:34:37;;;;;;;39.30;23.90;;;;;;;3.74;99.62;99807.48;106209;1254;96551;-79
2024/02/26 04:37:23;;;;;;;42.50;25.40;;;;;;;3.68;99.68;99804.79;106251;1256;100012;-78
2024/02/26 04:40:09;;;;;;;42.90;25.00;;;;;;;3.64;99.84;99801.67;106355;1257;100423;-78
2024/02/26 04:42:54;;;;;;;36.80;22.30;;;;;;;3.63;99.95;99800.77;106376;1259;97793;-79
2024/02/26 04:45:39;;;;;;;40.50;23.60;;;;;;;3.62;100.00;99796.83;106149;1253;97053;-79
2024/02/26 04:48:27;;;;;;;35.40;23.30;;;;;;;3.60;100.00;99795.80;106133;1254;96607;-78
2024/02/26 04:51:13;;;;;;;38.30;21.20;;;;;;;3.59;100.00;99791.95;106109;1254;100836;-79
2024/02/26 04:53:59;;;;;;;35.90;22.50;;;;;;;3.59;100.00;99794.05;106167;1259;99094;-79
2024/02/26 04:56:45;;;;;;;36.00;20.10;;;;;;;3.58;100.00;99793.08;106116;1257;98010;-79
2024/02/26 04:59:30;;;;;;;32.30;20.00;;;;;;;3.58;100.00;99796.73;106111;1259;96621;-78
2024/02/26 05:02:16;;;;;;;33.30;21.10;;;;;;;3.54;100.00;99796.21;106136;1254;97684;-78
2024/02/26 05:05:02;;;;;;;34.00;21.00;;;;;;;3.49;100.00;99794.45;106174;1260;100018;-78
2024/02/26 05:07:47;;;;;;;33.80;21.10;;;;;;;3.46;100.00;99793.70;106182;1257;99252;-78
2024/02/26 05:10:33;;;;;;;32.90;20.00;;;;;;;3.44;100.00;99790.27;106028;1254;98966;-78
2024/02/26 05:13:19;;;;;;;34.30;20.00;;;;;;;3.41;100.00;99787.96;105972;1257;97505;-80
2024/02/26 05:16:05;;;;;;;32.80;20.30;;;;;;;3.38;100.00;99790.90;106591;1259;96981;-78
2024/02/26 05:18:50;;;;;;;35.10;20.50;;;;;;;3.34;100.00;99796.02;106261;1253;100014;-79
2024/02/26 05:21:36;;;;;;;37.10;20.90;;;;;;;3.33;100.00;99795.64;106314;1259;99088;-79
2024/02/26 05:24:22;;;;;;;37.30;20.90;;;;;;;3.33;100.00;99800.09;106186;1260;97750;-78
2024/02/26 05:27:08;;;;;;;35.80;21.40;;;;;;;3.31;100.00;99801.80;106060;1259;96762;-78
2024/02/26 05:29:54;;;;;;;34.90;22.20;;;;;;;3.30;100.00;99808.48;106388;1259;97393;-82
2024/02/26 05:32:39;;;;;;;35.50;21.40;;;;;;;3.30;100.00;99809.87;106112;1260;99986;-78
2024/02/26 05:35:25;;;;;;;33.70;20.60;;;;;;;3.32;100.00;99818.02;106565;1253;99740;-79
2024/02/26 05:38:11;;;;;;;36.40;21.90;;;;;;;3.31;100.00;99819.36;106635;1257;99008;-79
2024/02/26 05:40:58;;;;;;;43.90;25.00;;;;;;;3.29;100.00;99821.98;106191;1254;96956;-79
2024/02/26 05:43:44;;;;;;;48.60;29.30;;;;;;;3.29;100.00;99820.30;106096;1258;96493;-78
2024/02/26 05:46:29;;;;;;;49.20;27.70;;;;;;;3.29;100.00;99820.59;106131;1259;100129;-80
2024/02/26 05:49:15;;;;;;;51.20;28.70;;;;;;;3.31;100.00;99826.95;106428;1259;99802;-79
2024/02/26 05:52:01;;;;;;;59.00;34.20;;;;;;;3.31;100.00;99829.16;107168;1259;99334;-79
2024/02/26 05:54:47;;;;;;;50.30;29.70;;;;;;;3.32;100.00;99832.96;107350;1254;96405;-81
2024/02/26 05:57:34;;;;;;;55.30;32.30;;;;;;;3.32;100.00;99835.94;105843;1259;96681;-79
2024/02/26 06:00:19;;;;;;;55.30;33.80;;;;;;;3.33;100.00;99837.11;106521;1254;100139;-79
2024/02/26 06:03:05;;;;;;;49.00;29.90;;;;;;;3.34;100.00;99838.56;106774;1254;100872;-80
2024/02/26 06:05:51;;;;;;;47.90;29.20;;;;;;;3.36;100.00;99836.65;106707;1259;97657;-80
2024/02/26 06:08:37;;;;;;;55.40;32.80;;;;;;;3.38;100.00;99840.66;106974;1259;96592;-80
2024/02/26 06:11:22;;;;;;;37.60;25.10;;;;;;;3.38;100.00;99840.94;106737;1258;96574;-80
2024/02/26 06:14:08;;;;;;;38.80;23.80;;;;;;;3.38;100.00;99848.95;106828;1259;100068;-79
2024/02/26 06:16:53;;;;;;;39.20;23.20;;;;;;;3.36;100.00;99850.55;106309;1255;100149;-80
2024/02/26 06:19:39;;;;;;;42.10;25.30;;;;;;;3.36;100.00;99856.52;106279;1255;97712;-79
2024/02/26 06:22:26;;;;;;;42.60;25.10;;;;;;;3.38;100.00;99858.47;106403;1260;96529;-80
2024/02/26 06:25:11;;;;;;;41.40;26.60;;;;;;;3.39;100.00;99862.91;106988;1259;95803;-80
2024/02/26 06:27:57;;;;;;;50.80;29.20;;;;;;;3.41;100.00;99866.74;106875;1254;99977;-79
2024/02/26 06:30:43;;;;;;;49.80;28.00;;;;;;;3.43;100.00;99867.27;106845;1254;99167;-79
2024/02/26 06:33:28;;;;;;;45.40;25.90;;;;;;;3.45;100.00;99867.73;106408;1260;97723;-79
2024/02/26 06:36:17;;;;;;;44.20;26.80;;;;;;;3.48;100.00;99867.28;107110;1254;96520;-79
2024/02/26 06:39:05;;;;;;;47.20;28.70;;;;;;;3.52;100.00;99868.83;107176;1254;97028;-79
2024/02/26 06:41:57;;;;;;;50.00;28.10;;;;;;;3.56;100.00;99875.46;106939;1254;100020;-78
2024/02/26 06:44:43;;;;;;;42.10;25.60;;;;;;;3.58;100.00;99874.84;106392;1255;99077;-79
2024/02/26 06:47:29;;;;;;;43.80;26.50;;;;;;;3.61;100.00;99873.48;106503;1254;97806;-79
2024/02/26 06:50:14;;;;;;;47.50;28.60;;;;;;;3.64;100.00;99872.77;106134;1257;97216;-78
2024/02/26 06:53:00;;;;;;;50.70;31.80;;;;;;;3.69;100.00;99873.11;106145;1258;96606;-77
2024/02/26 06:55:46;;;;;;;46.40;29.60;;;;;;;3.74;100.00;99874.52;106083;1257;100060;-78
2024/02/26 06:58:31;;;;;;;38.80;23.60;;;;;;;3.79;100.00;99876.36;106570;1254;99893;-79
2024/02/26 07:01:18;;;;;;;41.90;25.30;;;;;;;3.80;100.00;99880.48;106727;1258;98555;-79
2024/02/26 07:04:03;;;;;;;40.40;25.30;;;;;;;3.84;100.00;99879.89;106785;1254;97247;-79
2024/02/26 07:06:49;;;;;;;41.40;24.80;;;;;;;3.89;100.00;99878.09;106702;1254;96437;-80
2024/02/26 07:09:34;;;;;;;44.30;26.80;;;;;;;3.95;100.00;99879.92;106513;1254;100148;-79
2024/02/26 07:12:21;;;;;;;48.50;27.40;;;;;;;4.00;100.00;99879.56;106515;1257;100307;-79
2024/02/26 07:15:07;;;;;;;51.60;28.70;;;;;;;4.06;100.00;99882.14;106491;1254;97726;-79
2024/02/26 07:17:53;;;;;;;81.40;37.20;;;;;;;4.12;100.00;99884.86;106191;1266;96600;-77
2024/02/26 07:20:39;;;;;;;87.20;34.60;;;;;;;4.18;100.00;99882.25;106164;1258;96831;-78
2024/02/26 07:23:25;;;;;;;60.50;30.90;;;;;;;4.25;100.00;99881.70;106049;1254;101648;-78
2024/02/26 07:26:11;;;;;;;45.60;27.40;;;;;;;4.32;100.00;99885.35;106021;1254;99159;-78
2024/02/26 07:28:57;;;;;;;45.70;26.10;;;;;;;4.36;100.00;99885.55;105892;1257;99135;-78
2024/02/26 07:31:43;;;;;;;49.00;28.00;;;;;;;4.40;100.00;99886.89;106062;1260;97378;-78
2024/02/26 07:34:29;;;;;;;53.90;30.10;;;;;;;4.44;100.00;99886.25;106108;1258;97131;-78
2024/02/26 07:37:15;;;;;;;58.40;35.20;;;;;;;4.50;100.00;99887.61;106538;1257;100045;-78
2024/02/26 07:40:01;;;;;;;66.00;34.60;;;;;;;4.55;100.00;99889.30;106672;1257;99557;-79
2024/02/26 07:42:46;;;;;;;84.10;44.60;;;;;;;4.61;100.00;99892.36;106343;1259;97725;-83
2024/02/26 07:45:32;;;;;;;107.90;54.10;;;;;;;4.65;100.00;99891.16;106579;1260;94581;-82
2024/02/26 07:48:18;;;;;;;107.90;58.70;;;;;;;4.71;100.00;99897.14;106458;1260;98187;-81
2024/02/26 07:51:04;;;;;;;77.70;43.30;;;;;;;4.79;100.00;99898.42;106479;1258;100059;-81
2024/02/26 07:53:52;;;;;;;74.80;43.40;;;;;;;4.87;100.00;99896.13;106573;1253;99079;-81
2024/02/26 07:56:38;;;;;;;74.60;42.30;;;;;;;4.96;100.00;99896.65;106471;1261;99157;-84
2024/02/26 07:59:24;;;;;;;64.30;36.60;;;;;;;5.05;100.00;99899.73;106232;1260;96581;-84
2024/02/26 08:02:11;;;;;;;61.80;37.40;;;;;;;5.16;100.00;99901.00;106331;1258;96651;-82
2024/02/26 08:04:56;;;;;;;61.60;35.20;;;;;;;5.28;100.00;99899.45;106361;1254;100988;-82
2024/02/26 08:07:42;;;;;;;53.80;31.50;;;;;;;5.40;100.00;99900.58;106290;1255;99188;-85
2024/02/26 08:10:29;;;;;;;49.40;30.20;;;;;;;5.52;100.00;99899.77;106130;1260;98460;-84
2024/02/26 08:13:15;;;;;;;49.70;28.60;;;;;;;5.64;100.00;99897.58;106356;1259;97187;-84
2024/02/26 08:16:01;;;;;;;49.50;28.80;;;;;;;5.75;100.00;99900.85;106375;1257;97052;-85
2024/02/26 08:18:47;;;;;;;45.00;28.40;;;;;;;5.88;100.00;99906.13;106308;1258;100091;-87
2024/02/26 08:21:32;;;;;;;40.50;24.40;;;;;;;6.03;100.00;99903.87;106388;1254;99229;-86
2024/02/26 08:24:18;;;;;;;42.40;23.90;;;;;;;6.16;100.00;99906.24;106249;1254;99045;-83
2024/02/26 08:27:04;;;;;;;43.30;23.00;;;;;;;6.30;100.00;99910.30;106351;1254;96597;-78
2024/02/26 08:29:50;;;;;;;41.40;24.00;;;;;;;6.44;100.00;99909.39;105628;1260;97106;-79
2024/02/26 08:32:35;;;;;;;35.50;21.70;;;;;;;6.56;100.00;99907.10;105703;1260;101233;-79
2024/02/26 08:35:21;;;;;;;38.90;21.80;;;;;;;6.66;100.00;99905.93;105743;1254;100296;-78
2024/02/26 08:38:07;;;;;;;36.00;22.20;;;;;;;6.77;100.00;99906.08;105734;1258;98998;-79
2024/02/26 08:40:52;;;;;;;36.80;21.50;;;;;;;6.88;100.00;99907.95;105734;1258;96632;-78
2024/02/26 08:43:38;;;;;;;31.20;21.50;;;;;;;6.99;100.00;99905.58;105940;1258;96817;-79
2024/02/26 08:46:24;;;;;;;36.70;21.40;;;;;;;7.09;100.00;99904.80;105969;1257;100158;-79
2024/02/26 08:49:10;;;;;;;34.30;21.40;;;;;;;7.17;100.00;99905.91;105870;1254;99147;-78
2024/02/26 08:51:56;;;;;;;37.30;22.40;;;;;;;7.27;100.00;99909.10;105757;1258;97824;-79
2024/02/26 08:54:42;;;;;;;36.50;22.80;;;;;;;7.37;100.00;99913.06;106376;1253;96589;-79
2024/02/26 08:57:28;;;;;;;39.40;22.90;;;;;;;7.45;100.00;99913.74;106590;1257;97062;-88
2024/02/26 09:00:15;;;;;;;37.50;22.80;;;;;;;7.52;100.00;99911.73;106384;1254;101452;-84
2024/02/26 09:03:00;;;;;;;37.20;24.10;;;;;;;7.61;100.00;99911.23;106370;1255;99200;-82
2024/02/26 09:05:46;;;;;;;37.00;23.40;;;;;;;7.70;100.00;99906.15;106447;1253;97813;-80
2024/02/26 09:08:33;;;;;;;39.90;24.40;;;;;;;7.80;100.00;99907.52;106057;1257;96609;-83
2024/02/26 09:11:19;;;;;;;38.80;23.90;;;;;;;7.86;100.00;99905.83;106261;1254;98128;-82
2024/02/26 09:14:04;;;;;;;38.70;22.90;;;;;;;7.94;100.00;99904.89;106209;1258;101338;-81
2024/02/26 09:16:51;;;;;;;40.30;22.90;;;;;;;8.02;100.00;99905.41;106393;1257;100399;-82
2024/02/26 09:19:37;;;;;;;35.70;21.00;;;;;;;8.10;100.00;99909.48;106342;1254;99242;-81
2024/02/26 09:22:23;;;;;;;36.10;21.80;;;;;;;8.19;100.00;99908.80;106487;1255;96663;-81
2024/02/26 09:25:08;;;;;;;35.90;22.20;;;;;;;8.29;100.00;99905.83;106400;1254;96452;-82
2024/02/26 09:27:54;;;;;;;38.40;22.60;;;;;;;8.38;100.00;99905.10;106322;1260;100054;-81
2024/02/26 09:30:40;;;;;;;36.60;21.40;;;;;;;8.45;100.00;99906.65;106352;1254;99976;-83
2024/02/26 09:33:26;;;;;;;30.60;19.70;;;;;;;8.55;100.00;99909.39;106251;1254;98956;-80
2024/02/26 09:36:12;;;;;;;33.50;20.00;;;;;;;8.64;100.00;99910.03;105811;1257;97493;-78
2024/02/26 09:38:57;;;;;;;31.60;19.70;;;;;;;8.74;100.00;99913.63;106011;1260;97128;-82
2024/02/26 09:41:44;;;;;;;30.70;18.30;;;;;;;8.85;100.00;99917.92;106232;1257;100760;-78
2024/02/26 09:44:33;;;;;;;33.60;18.70;;;;;;;8.95;100.00;99917.88;105833;1255;100476;-81
2024/02/26 09:47:20;;;;;;;35.10;19.70;;;;;;;9.03;100.00;99913.64;106626;1257;97794;-84
2024/02/26 09:50:09;;;;;;;31.00;19.00;;;;;;;9.11;100.00;99914.15;106202;1254;96953;-83
2024/02/26 09:52:59;;;;;;;29.90;19.00;;;;;;;9.19;100.00;99915.21;106114;1259;96613;-79
2024/02/26 09:55:45;;;;;;;30.90;20.50;;;;;;;9.27;100.00;99911.87;106208;1260;100037;-82
2024/02/26 09:58:32;;;;;;;33.50;20.90;;;;;;;9.36;100.00;99911.50;106188;1254;101307;-82
2024/02/26 10:01:19;;;;;;;31.30;18.50;;;;;;;9.44;100.00;99912.95;105858;1254;97822;-85
2024/02/26 10:04:06;;;;;;;24.40;17.40;;;;;;;9.52;100.00;99912.39;106129;1260;96844;-79
2024/02/26 10:06:52;;;;;;;27.10;17.80;;;;;;;9.63;100.00;99914.59;106326;1253;95833;-81
2024/02/26 10:09:38;;;;;;;27.20;18.50;;;;;;;9.73;100.00;99913.58;106342;1254;101325;-80
2024/02/26 10:12:27;;;;;;;28.20;18.20;;;;;;;9.84;100.00;99907.75;106298;1254;101290;-84
2024/02/26 10:15:14;;;;;;;27.50;17.50;;;;;;;9.93;100.00;99911.29;106139;1270;97793;-84
2024/02/26 10:18:00;;;;;;;27.60;17.20;;;;;;;10.02;100.00;99911.73;106270;1257;96617;-84
2024/02/26 10:21:07;;;;;;;23.40;17.00;;;;;;;10.13;100.00;99912.13;106440;1254;96523;-80
2024/02/26 10:23:52;;;;;;;28.70;17.60;;;;;;;10.23;100.00;99915.39;106337;1254;99958;-85
2024/02/26 10:26:45;;;;;;;28.20;17.90;;;;;;;10.34;100.00;99917.92;106745;1255;99752;-85
2024/02/26 10:29:31;;;;;;;28.00;17.80;;;;;;;10.45;100.00;99916.11;106191;1254;97820;-82
2024/02/26 10:32:17;;;;;;;28.70;18.20;;;;;;;10.55;100.00;99912.95;106239;1254;96502;-82
2024/02/26 10:35:08;;;;;;;28.50;18.00;;;;;;;10.63;100.00;99908.81;108166;1253;95726;-84
2024/02/26 10:37:54;;;;;;;27.30;17.30;;;;;;;10.71;100.00;99909.65;106711;1258;101116;-83
2024/02/26 10:40:39;;;;;;;28.80;18.30;;;;;;;10.81;100.00;99909.25;106345;1254;99082;-85
2024/02/26 10:43:25;;;;;;;26.30;16.10;;;;;;;10.89;100.00;99902.33;106203;1259;99127;-82
2024/02/26 10:46:11;;;;;;;27.40;17.80;;;;;;;10.94;100.00;99905.55;106521;1254;96524;-83
2024/02/26 10:48:57;;;;;;;31.20;16.80;;;;;;;11.01;100.00;99908.89;106136;1253;96558;-80
2024/02/26 10:51:46;;;;;;;24.90;15.90;;;;;;;11.07;100.00;99901.05;106037;1254;100369;-84
2024/02/26 10:54:33;;;;;;;23.00;16.00;;;;;;;11.13;100.00;99900.96;106489;1254;99777;-83
2024/02/26 10:57:21;;;;;;;26.40;16.10;;;;;;;11.20;100.00;99898.78;106569;1257;99039;-82
2024/02/26 11:00:10;;;;;;;22.70;15.20;;;;;;;11.28;100.00;99897.08;106508;1254;96748;-85
2024/02/26 11:02:58;;;;;;;21.20;15.20;;;;;;;11.35;100.00;99898.64;106229;1254;97595;-85
2024/02/26 11:05:48;;;;;;;19.00;14.80;;;;;;;11.42;100.00;99898.87;106382;1259;101303;-83
2024/02/26 11:08:35;;;;;;;18.30;13.20;;;;;;;11.50;100.00;99900.46;106253;1257;99086;-83
2024/02/26 11:11:22;;;;;;;19.30;13.40;;;;;;;11.58;100.00;99893.84;106191;1253;98941;-86
2024/02/26 11:14:09;;;;;;;19.10;13.80;;;;;;;11.66;100.00;99890.77;106597;1257;96702;-87
2024/02/26 11:16:58;;;;;;;20.10;13.20;;;;;;;11.74;100.00;99891.36;106363;1253;96712;-85
2024/02/26 11:19:46;;;;;;;17.50;12.90;;;;;;;11.82;100.00;99887.33;106150;1257;102141;-84
2024/02/26 11:22:33;;;;;;;15.20;12.60;;;;;;;11.93;100.00;99889.89;106371;1258;101269;-85
2024/02/26 11:25:19;;;;;;;16.30;12.90;;;;;;;12.03;100.00;99888.47;106541;1253;97808;-85
2024/02/26 11:28:10;;;;;;;16.60;12.20;;;;;;;12.13;100.00;99886.33;106388;1260;98309;-85
2024/02/26 11:30:59;;;;;;;16.40;12.30;;;;;;;12.21;100.00;99887.81;106294;1260;96828;-84
2024/02/26 11:33:46;;;;;;;14.10;11.60;;;;;;;12.29;100.00;99885.42;106328;1257;102072;-85
2024/02/26 11:36:32;;;;;;;14.80;11.90;;;;;;;12.36;100.00;99888.55;106258;1254;100101;-81
2024/02/26 11:39:19;;;;;;;17.90;12.90;;;;;;;12.45;100.00;99892.52;106562;1253;97667;-82
2024/02/26 11:42:07;;;;;;;23.20;14.50;;;;;;;12.51;100.00;99889.74;106089;1254;96648;-87
2024/02/26 11:44:53;;;;;;;18.40;13.10;;;;;;;12.58;100.00;99890.73;106592;1254;97045;-87
2024/02/26 11:47:39;;;;;;;17.00;12.80;;;;;;;12.64;100.00;99895.41;106600;1254;99962;-87
2024/02/26 11:50:38;;;;;;;16.40;13.40;;;;;;;12.65;100.00;99896.61;106487;1260;101294;-86
2024/02/26 11:53:31;;;;;;;15.10;12.20;;;;;;;12.67;100.00;99894.90;106621;1259;98097;-87
2024/02/26 11:56:26;;;;;;;14.60;11.40;;;;;;;12.69;100.00;99901.08;105721;1254;98094;-84
2024/02/26 11:59:12;;;;;;;18.00;13.30;;;;;;;12.72;100.00;99898.25;106421;1253;98587;-79
2024/02/26 12:01:58;;;;;;;17.50;14.00;;;;;;;12.76;100.00;99898.75;105955;1257;103064;-86
2024/02/26 12:04:44;;;;;;;19.50;14.50;;;;;;;12.81;100.00;99899.62;106237;1257;99467;-85
2024/02/26 12:07:30;;;;;;;16.60;12.90;;;;;;;12.85;100.00;99899.67;106373;1254;99589;-87
2024/02/26 12:10:28;;;;;;;15.00;13.20;;;;;;;12.87;100.00;99900.87;106551;1254;97951;-88
2024/02/26 12:13:19;;;;;;;19.10;12.90;;;;;;;12.85;100.00;99903.57;106806;1259;98436;-85
2024/02/26 12:16:05;;;;;;;15.10;13.00;;;;;;;12.85;100.00;99899.15;106528;1254;102213;-81
2024/02/26 12:18:52;;;;;;;16.70;12.60;;;;;;;12.87;100.00;99895.13;106613;1254;100366;-87
2024/02/26 12:21:37;;;;;;;17.00;12.40;;;;;;;12.88;100.00;99897.96;106371;1256;99220;-85
2024/02/26 12:24:26;;;;;;;14.10;12.40;;;;;;;12.88;100.00;99897.25;106157;1253;98030;-86
2024/02/26 12:27:12;;;;;;;14.40;12.20;;;;;;;12.88;100.00;99899.20;106415;1255;98030;-88
2024/02/26 12:29:57;;;;;;;15.80;12.80;;;;;;;12.88;100.00;99902.84;106240;1254;101450;-85
2024/02/26 12:32:43;;;;;;;21.30;13.90;;;;;;;12.87;100.00;99901.48;106252;1254;99252;-87
2024/02/26 12:35:31;;;;;;;17.90;14.00;;;;;;;12.89;100.00;99903.96;106434;1253;98008;-87